sensor_id;sensor_type;location;lat;lon;timestamp;P1;durP1;ratioP1;P2;durP2;ratioP2
66933;SDS011;53846;51.984;5.890;2022-08-21T00:02:19;44.13;;;42.03;;
66933;SDS011;53846;51.984;5.890;2022-08-21T00:04:49;44.92;;;42.78;;
66933;SDS011;53846;51.984;5.890;2022-08-21T00:07:20;49.65;;;47.20;;
66933;SDS011;53846;51.984;5.890;2022-08-21T00:09:49;47.53;;;45.22;;
66933;SDS011;53846;51.984;5.890;2022-08-21T00:12:18;46.40;;;44.20;;
66933;SDS011;53846;51.984;5.890;2022-08-21T00:14:50;48.50;;;46.15;;
66933;SDS011;53846;51.984;5.890;2022-08-21T00:17:19;47.47;;;45.17;;
66933;SDS011;53846;51.984;5.890;2022-08-21T00:19:48;48.38;;;46.05;;
66933;SDS011;53846;51.984;5.890;2022-08-21T00:22:17;47.60;;;45.22;;
66933;SDS011;53846;51.984;5.890;2022-08-21T00:24:46;48.40;;;46.08;;
66933;SDS011;53846;51.984;5.890;2022-08-21T00:27:15;51.20;;;48.70;;
66933;SDS011;53846;51.984;5.890;2022-08-21T00:29:44;48.25;;;45.92;;
66933;SDS011;53846;51.984;5.890;2022-08-21T00:32:21;51.70;;;49.17;;
66933;SDS011;53846;51.984;5.890;2022-08-21T00:34:51;50.63;;;48.20;;
66933;SDS011;53846;51.984;5.890;2022-08-21T00:37:21;58.65;;;55.78;;
66933;SDS011;53846;51.984;5.890;2022-08-21T00:39:50;53.90;;;51.30;;
66933;SDS011;53846;51.984;5.890;2022-08-21T00:42:22;137.37;;;130.50;;
66933;SDS011;53846;51.984;5.890;2022-08-21T00:44:51;48.00;;;43.45;;
66933;SDS011;53846;51.984;5.890;2022-08-21T00:47:23;42.38;;;40.38;;
66933;SDS011;53846;51.984;5.890;2022-08-21T00:49:52;42.78;;;40.75;;
66933;SDS011;53846;51.984;5.890;2022-08-21T00:52:22;44.33;;;42.20;;
66933;SDS011;53846;51.984;5.890;2022-08-21T00:54:54;47.53;;;45.17;;
66933;SDS011;53846;51.984;5.890;2022-08-21T00:57:27;50.83;;;48.38;;
66933;SDS011;53846;51.984;5.890;2022-08-21T01:00:03;51.65;;;49.15;;
66933;SDS011;53846;51.984;5.890;2022-08-21T01:02:38;58.38;;;55.53;;
66933;SDS011;53846;51.984;5.890;2022-08-21T01:05:07;57.35;;;54.55;;
66933;SDS011;53846;51.984;5.890;2022-08-21T01:07:36;61.13;;;58.13;;
66933;SDS011;53846;51.984;5.890;2022-08-21T01:10:06;63.75;;;60.60;;
66933;SDS011;53846;51.984;5.890;2022-08-21T01:12:36;60.08;;;57.17;;
66933;SDS011;53846;51.984;5.890;2022-08-21T01:15:06;62.70;;;59.65;;
66933;SDS011;53846;51.984;5.890;2022-08-21T01:17:39;59.97;;;57.05;;
66933;SDS011;53846;51.984;5.890;2022-08-21T01:20:09;74.28;;;70.60;;
66933;SDS011;53846;51.984;5.890;2022-08-21T01:22:42;75.57;;;71.85;;
66933;SDS011;53846;51.984;5.890;2022-08-21T01:25:12;72.60;;;69.00;;
66933;SDS011;53846;51.984;5.890;2022-08-21T01:27:45;69.03;;;65.63;;
66933;SDS011;53846;51.984;5.890;2022-08-21T01:30:15;74.07;;;70.45;;
66933;SDS011;53846;51.984;5.890;2022-08-21T01:32:48;73.60;;;69.97;;
66933;SDS011;53846;51.984;5.890;2022-08-21T01:35:17;74.03;;;70.35;;
66933;SDS011;53846;51.984;5.890;2022-08-21T01:37:50;74.85;;;71.15;;
66933;SDS011;53846;51.984;5.890;2022-08-21T01:40:19;74.68;;;70.90;;
66933;SDS011;53846;51.984;5.890;2022-08-21T01:42:49;83.03;;;78.90;;
66933;SDS011;53846;51.984;5.890;2022-08-21T01:45:18;87.15;;;82.82;;
66933;SDS011;53846;51.984;5.890;2022-08-21T01:47:48;85.65;;;81.43;;
66933;SDS011;53846;51.984;5.890;2022-08-21T01:50:18;89.17;;;84.70;;
66933;SDS011;53846;51.984;5.890;2022-08-21T01:52:50;94.80;;;90.05;;
66933;SDS011;53846;51.984;5.890;2022-08-21T01:55:20;90.13;;;85.65;;
66933;SDS011;53846;51.984;5.890;2022-08-21T01:57:50;88.07;;;83.70;;
66933;SDS011;53846;51.984;5.890;2022-08-21T02:00:21;95.45;;;90.68;;
66933;SDS011;53846;51.984;5.890;2022-08-21T02:02:51;98.65;;;93.70;;
66933;SDS011;53846;51.984;5.890;2022-08-21T02:05:20;95.47;;;90.72;;
66933;SDS011;53846;51.984;5.890;2022-08-21T02:07:52;105.13;;;99.78;;
66933;SDS011;53846;51.984;5.890;2022-08-21T02:10:23;104.68;;;99.40;;
66933;SDS011;53846;51.984;5.890;2022-08-21T02:12:54;103.25;;;98.05;;
66933;SDS011;53846;51.984;5.890;2022-08-21T02:15:24;91.70;;;87.13;;
66933;SDS011;53846;51.984;5.890;2022-08-21T02:17:55;106.13;;;100.82;;
66933;SDS011;53846;51.984;5.890;2022-08-21T02:20:27;102.05;;;96.97;;
66933;SDS011;53846;51.984;5.890;2022-08-21T02:23:00;107.23;;;101.80;;
66933;SDS011;53846;51.984;5.890;2022-08-21T02:25:30;112.35;;;106.65;;
66933;SDS011;53846;51.984;5.890;2022-08-21T02:28:02;114.93;;;109.13;;
66933;SDS011;53846;51.984;5.890;2022-08-21T02:30:34;125.93;;;119.53;;
66933;SDS011;53846;51.984;5.890;2022-08-21T02:33:05;117.75;;;111.75;;
66933;SDS011;53846;51.984;5.890;2022-08-21T02:35:36;116.78;;;110.80;;
66933;SDS011;53846;51.984;5.890;2022-08-21T02:38:11;115.53;;;109.65;;
66933;SDS011;53846;51.984;5.890;2022-08-21T02:40:43;109.72;;;104.20;;
66933;SDS011;53846;51.984;5.890;2022-08-21T02:43:14;118.68;;;112.65;;
66933;SDS011;53846;51.984;5.890;2022-08-21T02:45:44;118.20;;;112.20;;
66933;SDS011;53846;51.984;5.890;2022-08-21T02:48:15;116.93;;;110.97;;
66933;SDS011;53846;51.984;5.890;2022-08-21T02:50:46;117.28;;;111.32;;
66933;SDS011;53846;51.984;5.890;2022-08-21T02:53:19;120.63;;;114.50;;
66933;SDS011;53846;51.984;5.890;2022-08-21T02:55:49;119.20;;;113.18;;
66933;SDS011;53846;51.984;5.890;2022-08-21T02:58:20;117.45;;;111.50;;
66933;SDS011;53846;51.984;5.890;2022-08-21T03:00:51;122.80;;;116.60;;
66933;SDS011;53846;51.984;5.890;2022-08-21T03:03:21;116.07;;;110.18;;
66933;SDS011;53846;51.984;5.890;2022-08-21T03:05:50;121.72;;;115.45;;
66933;SDS011;53846;51.984;5.890;2022-08-21T03:08:22;128.60;;;122.10;;
66933;SDS011;53846;51.984;5.890;2022-08-21T03:10:52;79.22;;;75.30;;
66933;SDS011;53846;51.984;5.890;2022-08-21T03:13:22;61.58;;;58.58;;
66933;SDS011;53846;51.984;5.890;2022-08-21T03:15:51;80.63;;;76.65;;
66933;SDS011;53846;51.984;5.890;2022-08-21T03:18:20;84.10;;;79.95;;
66933;SDS011;53846;51.984;5.890;2022-08-21T03:20:49;89.73;;;85.20;;
66933;SDS011;53846;51.984;5.890;2022-08-21T03:23:19;94.47;;;89.75;;
66933;SDS011;53846;51.984;5.890;2022-08-21T03:25:51;104.03;;;98.78;;
66933;SDS011;53846;51.984;5.890;2022-08-21T03:28:20;112.93;;;107.20;;
66933;SDS011;53846;51.984;5.890;2022-08-21T03:30:50;121.70;;;115.47;;
66933;SDS011;53846;51.984;5.890;2022-08-21T03:33:20;122.30;;;116.13;;
66933;SDS011;53846;51.984;5.890;2022-08-21T03:35:55;134.60;;;127.63;;
66933;SDS011;53846;51.984;5.890;2022-08-21T03:38:30;130.37;;;123.63;;
66933;SDS011;53846;51.984;5.890;2022-08-21T03:41:01;135.52;;;128.52;;
66933;SDS011;53846;51.984;5.890;2022-08-21T03:43:31;141.00;;;133.77;;
66933;SDS011;53846;51.984;5.890;2022-08-21T03:46:01;146.57;;;138.90;;
66933;SDS011;53846;51.984;5.890;2022-08-21T03:48:31;141.67;;;134.37;;
66933;SDS011;53846;51.984;5.890;2022-08-21T03:51:01;137.50;;;130.37;;
66933;SDS011;53846;51.984;5.890;2022-08-21T03:53:33;146.10;;;138.53;;
66933;SDS011;53846;51.984;5.890;2022-08-21T03:56:02;148.80;;;141.03;;
66933;SDS011;53846;51.984;5.890;2022-08-21T03:58:32;150.57;;;142.73;;
66933;SDS011;53846;51.984;5.890;2022-08-21T04:01:02;142.37;;;135.03;;
66933;SDS011;53846;51.984;5.890;2022-08-21T04:03:33;150.47;;;142.63;;
66933;SDS011;53846;51.984;5.890;2022-08-21T04:06:04;157.47;;;149.23;;
66933;SDS011;53846;51.984;5.890;2022-08-21T04:08:36;151.93;;;144.10;;
66933;SDS011;53846;51.984;5.890;2022-08-21T04:11:08;157.63;;;149.40;;
66933;SDS011;53846;51.984;5.890;2022-08-21T04:13:38;159.93;;;151.60;;
66933;SDS011;53846;51.984;5.890;2022-08-21T04:16:08;156.77;;;148.20;;
66933;SDS011;53846;51.984;5.890;2022-08-21T04:18:37;151.48;;;143.50;;
66933;SDS011;53846;51.984;5.890;2022-08-21T04:21:07;162.40;;;153.90;;
66933;SDS011;53846;51.984;5.890;2022-08-21T04:23:41;154.00;;;146.10;;
66933;SDS011;53846;51.984;5.890;2022-08-21T04:26:10;160.67;;;152.37;;
66933;SDS011;53846;51.984;5.890;2022-08-21T04:28:39;161.57;;;153.17;;
66933;SDS011;53846;51.984;5.890;2022-08-21T04:31:08;172.25;;;163.15;;
66933;SDS011;53846;51.984;5.890;2022-08-21T04:33:37;163.00;;;154.43;;
66933;SDS011;53846;51.984;5.890;2022-08-21T04:36:07;173.07;;;164.07;;
66933;SDS011;53846;51.984;5.890;2022-08-21T04:38:36;164.23;;;155.83;;
66933;SDS011;53846;51.984;5.890;2022-08-21T04:41:08;167.70;;;158.93;;
66933;SDS011;53846;51.984;5.890;2022-08-21T04:43:38;154.10;;;146.13;;
66933;SDS011;53846;51.984;5.890;2022-08-21T04:46:08;171.13;;;162.10;;
66933;SDS011;53846;51.984;5.890;2022-08-21T04:48:37;164.90;;;156.27;;
66933;SDS011;53846;51.984;5.890;2022-08-21T04:51:07;176.57;;;167.40;;
66933;SDS011;53846;51.984;5.890;2022-08-21T04:53:40;170.23;;;161.33;;
66933;SDS011;53846;51.984;5.890;2022-08-21T04:56:15;182.00;;;172.47;;
66933;SDS011;53846;51.984;5.890;2022-08-21T04:58:49;185.23;;;175.73;;
66933;SDS011;53846;51.984;5.890;2022-08-21T05:01:22;189.27;;;179.50;;
66933;SDS011;53846;51.984;5.890;2022-08-21T05:03:54;193.17;;;183.23;;
66933;SDS011;53846;51.984;5.890;2022-08-21T05:06:26;191.37;;;181.47;;
66933;SDS011;53846;51.984;5.890;2022-08-21T05:08:58;204.00;;;193.53;;
66933;SDS011;53846;51.984;5.890;2022-08-21T05:11:29;195.40;;;185.30;;
66933;SDS011;53846;51.984;5.890;2022-08-21T05:14:00;205.77;;;195.23;;
66933;SDS011;53846;51.984;5.890;2022-08-21T05:16:30;187.20;;;177.50;;
66933;SDS011;53846;51.984;5.890;2022-08-21T05:18:59;188.43;;;178.70;;
66933;SDS011;53846;51.984;5.890;2022-08-21T05:21:28;183.50;;;173.90;;
66933;SDS011;53846;51.984;5.890;2022-08-21T05:23:57;191.03;;;181.03;;
66933;SDS011;53846;51.984;5.890;2022-08-21T05:26:26;189.53;;;179.73;;
66933;SDS011;53846;51.984;5.890;2022-08-21T05:28:58;172.37;;;163.43;;
66933;SDS011;53846;51.984;5.890;2022-08-21T05:31:27;180.87;;;171.47;;
66933;SDS011;53846;51.984;5.890;2022-08-21T05:33:56;179.07;;;169.90;;
66933;SDS011;53846;51.984;5.890;2022-08-21T05:36:25;180.43;;;170.97;;
66933;SDS011;53846;51.984;5.890;2022-08-21T05:38:54;180.77;;;171.53;;
66933;SDS011;53846;51.984;5.890;2022-08-21T05:41:23;171.73;;;162.83;;
66933;SDS011;53846;51.984;5.890;2022-08-21T05:43:52;187.13;;;177.57;;
66933;SDS011;53846;51.984;5.890;2022-08-21T05:46:24;187.90;;;178.23;;
66933;SDS011;53846;51.984;5.890;2022-08-21T05:48:53;194.97;;;184.87;;
66933;SDS011;53846;51.984;5.890;2022-08-21T05:51:22;210.70;;;199.77;;
66933;SDS011;53846;51.984;5.890;2022-08-21T05:53:51;203.77;;;193.20;;
66933;SDS011;53846;51.984;5.890;2022-08-21T05:56:20;188.77;;;179.03;;
66933;SDS011;53846;51.984;5.890;2022-08-21T05:58:49;197.47;;;187.37;;
66933;SDS011;53846;51.984;5.890;2022-08-21T06:01:18;200.00;;;189.67;;
66933;SDS011;53846;51.984;5.890;2022-08-21T06:03:50;192.33;;;182.43;;
66933;SDS011;53846;51.984;5.890;2022-08-21T06:06:19;194.70;;;184.77;;
66933;SDS011;53846;51.984;5.890;2022-08-21T06:08:48;188.90;;;179.00;;
66933;SDS011;53846;51.984;5.890;2022-08-21T06:11:18;182.00;;;172.67;;
66933;SDS011;53846;51.984;5.890;2022-08-21T06:13:47;85.13;;;80.80;;
66933;SDS011;53846;51.984;5.890;2022-08-21T06:16:16;138.90;;;131.67;;
66933;SDS011;53846;51.984;5.890;2022-08-21T06:18:45;157.03;;;148.73;;
66933;SDS011;53846;51.984;5.890;2022-08-21T06:21:17;155.80;;;147.70;;
66933;SDS011;53846;51.984;5.890;2022-08-21T06:23:46;149.70;;;140.93;;
66933;SDS011;53846;51.984;5.890;2022-08-21T06:26:15;139.30;;;132.10;;
66933;SDS011;53846;51.984;5.890;2022-08-21T06:28:45;143.60;;;136.20;;
66933;SDS011;53846;51.984;5.890;2022-08-21T06:31:15;140.63;;;133.43;;
66933;SDS011;53846;51.984;5.890;2022-08-21T06:33:46;133.97;;;127.13;;
66933;SDS011;53846;51.984;5.890;2022-08-21T06:36:18;121.90;;;115.63;;
66933;SDS011;53846;51.984;5.890;2022-08-21T06:38:48;101.93;;;96.68;;
66933;SDS011;53846;51.984;5.890;2022-08-21T06:41:18;110.45;;;104.75;;
66933;SDS011;53846;51.984;5.890;2022-08-21T06:43:47;100.45;;;95.40;;
66933;SDS011;53846;51.984;5.890;2022-08-21T06:46:16;84.70;;;79.33;;
66933;SDS011;53846;51.984;5.890;2022-08-21T06:48:45;85.40;;;81.13;;
66933;SDS011;53846;51.984;5.890;2022-08-21T06:51:15;79.38;;;75.40;;
66933;SDS011;53846;51.984;5.890;2022-08-21T06:53:47;78.70;;;74.77;;
66933;SDS011;53846;51.984;5.890;2022-08-21T06:56:16;55.87;;;53.13;;
66933;SDS011;53846;51.984;5.890;2022-08-21T06:58:45;55.10;;;52.40;;
66933;SDS011;53846;51.984;5.890;2022-08-21T07:01:15;71.88;;;68.28;;
66933;SDS011;53846;51.984;5.890;2022-08-21T07:03:44;78.30;;;74.35;;
66933;SDS011;53846;51.984;5.890;2022-08-21T07:06:13;52.83;;;50.22;;
66933;SDS011;53846;51.984;5.890;2022-08-21T07:08:45;47.55;;;45.25;;
66933;SDS011;53846;51.984;5.890;2022-08-21T07:11:14;60.17;;;57.20;;
66933;SDS011;53846;51.984;5.890;2022-08-21T07:13:46;59.63;;;56.60;;
66933;SDS011;53846;51.984;5.890;2022-08-21T07:16:18;77.05;;;73.13;;
66933;SDS011;53846;51.984;5.890;2022-08-21T07:18:47;68.32;;;64.93;;
66933;SDS011;53846;51.984;5.890;2022-08-21T07:21:16;79.88;;;75.82;;
66933;SDS011;53846;51.984;5.890;2022-08-21T07:23:49;71.18;;;64.43;;
66933;SDS011;53846;51.984;5.890;2022-08-21T07:26:20;66.55;;;63.05;;
66933;SDS011;53846;51.984;5.890;2022-08-21T07:28:51;63.72;;;60.50;;
66933;SDS011;53846;51.984;5.890;2022-08-21T07:31:22;55.15;;;52.35;;
66933;SDS011;53846;51.984;5.890;2022-08-21T07:33:52;54.15;;;51.42;;
66933;SDS011;53846;51.984;5.890;2022-08-21T07:36:22;43.60;;;41.45;;
66933;SDS011;53846;51.984;5.890;2022-08-21T07:38:53;45.15;;;42.85;;
66933;SDS011;53846;51.984;5.890;2022-08-21T07:41:23;57.55;;;54.63;;
66933;SDS011;53846;51.984;5.890;2022-08-21T07:43:55;63.08;;;59.90;;
66933;SDS011;53846;51.984;5.890;2022-08-21T07:46:24;65.88;;;62.13;;
66933;SDS011;53846;51.984;5.890;2022-08-21T07:48:54;63.80;;;60.05;;
66933;SDS011;53846;51.984;5.890;2022-08-21T07:51:24;62.53;;;59.35;;
66933;SDS011;53846;51.984;5.890;2022-08-21T07:53:59;52.30;;;49.60;;
66933;SDS011;53846;51.984;5.890;2022-08-21T07:56:30;34.10;;;32.47;;
66933;SDS011;53846;51.984;5.890;2022-08-21T07:58:59;37.08;;;35.17;;
66933;SDS011;53846;51.984;5.890;2022-08-21T08:01:28;38.65;;;36.72;;
66933;SDS011;53846;51.984;5.890;2022-08-21T08:03:58;35.30;;;33.60;;
66933;SDS011;53846;51.984;5.890;2022-08-21T08:06:27;38.72;;;36.83;;
66933;SDS011;53846;51.984;5.890;2022-08-21T08:08:58;35.88;;;34.17;;
66933;SDS011;53846;51.984;5.890;2022-08-21T08:11:29;32.47;;;30.90;;
66933;SDS011;53846;51.984;5.890;2022-08-21T08:13:58;34.53;;;32.85;;
66933;SDS011;53846;51.984;5.890;2022-08-21T08:16:29;37.50;;;35.70;;
66933;SDS011;53846;51.984;5.890;2022-08-21T08:18:58;35.53;;;33.83;;
66933;SDS011;53846;51.984;5.890;2022-08-21T08:21:28;37.20;;;35.40;;
66933;SDS011;53846;51.984;5.890;2022-08-21T08:24:01;28.67;;;27.33;;
66933;SDS011;53846;51.984;5.890;2022-08-21T08:26:30;30.25;;;28.65;;
66933;SDS011;53846;51.984;5.890;2022-08-21T08:28:59;31.65;;;30.15;;
66933;SDS011;53846;51.984;5.890;2022-08-21T08:31:28;34.13;;;31.92;;
66933;SDS011;53846;51.984;5.890;2022-08-21T08:33:57;31.65;;;30.13;;
66933;SDS011;53846;51.984;5.890;2022-08-21T08:36:31;35.35;;;33.65;;
66933;SDS011;53846;51.984;5.890;2022-08-21T08:39:04;33.25;;;31.67;;
66933;SDS011;53846;51.984;5.890;2022-08-21T08:41:34;31.63;;;30.13;;
66933;SDS011;53846;51.984;5.890;2022-08-21T08:44:04;39.00;;;36.17;;
66933;SDS011;53846;51.984;5.890;2022-08-21T08:46:35;36.90;;;35.10;;
66933;SDS011;53846;51.984;5.890;2022-08-21T08:49:10;39.55;;;37.45;;
66933;SDS011;53846;51.984;5.890;2022-08-21T08:51:45;46.38;;;44.03;;
66933;SDS011;53846;51.984;5.890;2022-08-21T08:54:21;45.45;;;43.28;;
66933;SDS011;53846;51.984;5.890;2022-08-21T08:56:57;49.20;;;46.85;;
66933;SDS011;53846;51.984;5.890;2022-08-21T08:59:30;52.22;;;49.65;;
66933;SDS011;53846;51.984;5.890;2022-08-21T09:02:04;59.42;;;56.50;;
66933;SDS011;53846;51.984;5.890;2022-08-21T09:04:33;80.70;;;76.72;;
66933;SDS011;53846;51.984;5.890;2022-08-21T09:07:06;94.70;;;90.05;;
66933;SDS011;53846;51.984;5.890;2022-08-21T09:09:47;128.77;;;122.43;;
66933;SDS011;53846;51.984;5.890;2022-08-21T09:12:29;117.93;;;112.10;;
66933;SDS011;53846;51.984;5.890;2022-08-21T09:15:08;126.30;;;120.00;;
66933;SDS011;53846;51.984;5.890;2022-08-21T09:17:51;141.13;;;133.93;;
66933;SDS011;53846;51.984;5.890;2022-08-21T09:20:35;149.05;;;141.48;;
66933;SDS011;53846;51.984;5.890;2022-08-21T09:23:10;201.05;;;190.98;;
66933;SDS011;53846;51.984;5.890;2022-08-21T09:25:53;198.23;;;188.45;;
66933;SDS011;53846;51.984;5.890;2022-08-21T09:28:26;208.85;;;198.57;;
66933;SDS011;53846;51.984;5.890;2022-08-21T09:30:59;213.48;;;202.98;;
66933;SDS011;53846;51.984;5.890;2022-08-21T09:33:30;233.63;;;222.00;;
66933;SDS011;53846;51.984;5.890;2022-08-21T09:35:59;221.30;;;210.52;;
66933;SDS011;53846;51.984;5.890;2022-08-21T09:38:30;171.93;;;163.48;;
66933;SDS011;53846;51.984;5.890;2022-08-21T09:41:05;156.63;;;148.80;;
66933;SDS011;53846;51.984;5.890;2022-08-21T09:43:36;199.48;;;189.63;;
66933;SDS011;53846;51.984;5.890;2022-08-21T09:46:08;183.43;;;174.27;;
66933;SDS011;53846;51.984;5.890;2022-08-21T09:48:42;159.40;;;151.48;;
66933;SDS011;53846;51.984;5.890;2022-08-21T09:51:14;125.25;;;118.95;;
66933;SDS011;53846;51.984;5.890;2022-08-21T09:53:45;119.90;;;114.05;;
66933;SDS011;53846;51.984;5.890;2022-08-21T09:56:21;99.05;;;94.25;;
66933;SDS011;53846;51.984;5.890;2022-08-21T09:59:13;88.15;;;83.90;;
66933;SDS011;53846;51.984;5.890;2022-08-21T10:01:45;64.07;;;61.00;;
66933;SDS011;53846;51.984;5.890;2022-08-21T10:04:19;58.30;;;55.55;;
66933;SDS011;53846;51.984;5.890;2022-08-21T10:06:50;57.47;;;53.72;;
66933;SDS011;53846;51.984;5.890;2022-08-21T10:09:21;34.30;;;32.70;;
66933;SDS011;53846;51.984;5.890;2022-08-21T10:11:56;41.60;;;39.55;;
66933;SDS011;53846;51.984;5.890;2022-08-21T10:14:39;38.72;;;35.78;;
66933;SDS011;53846;51.984;5.890;2022-08-21T10:17:17;22.73;;;21.63;;
66933;SDS011;53846;51.984;5.890;2022-08-21T10:19:55;12.98;;;12.38;;
66933;SDS011;53846;51.984;5.890;2022-08-21T10:22:32;13.15;;;12.55;;
66933;SDS011;53846;51.984;5.890;2022-08-21T10:25:12;18.13;;;17.33;;
66933;SDS011;53846;51.984;5.890;2022-08-21T10:27:50;13.38;;;12.68;;
66933;SDS011;53846;51.984;5.890;2022-08-21T10:30:31;10.35;;;9.95;;
66933;SDS011;53846;51.984;5.890;2022-08-21T10:33:11;14.73;;;14.07;;
66933;SDS011;53846;51.984;5.890;2022-08-21T10:35:49;12.27;;;11.75;;
66933;SDS011;53846;51.984;5.890;2022-08-21T10:41:14;17.83;;;16.92;;
66933;SDS011;53846;51.984;5.890;2022-08-21T10:43:59;19.92;;;19.02;;
66933;SDS011;53846;51.984;5.890;2022-08-21T10:46:37;14.05;;;13.45;;
66933;SDS011;53846;51.984;5.890;2022-08-21T10:49:20;12.48;;;11.73;;
66933;SDS011;53846;51.984;5.890;2022-08-21T10:51:55;9.30;;;8.75;;
66933;SDS011;53846;51.984;5.890;2022-08-21T10:54:32;8.95;;;8.55;;
66933;SDS011;53846;51.984;5.890;2022-08-21T10:57:11;12.38;;;11.75;;
66933;SDS011;53846;51.984;5.890;2022-08-21T10:59:49;13.23;;;12.63;;
66933;SDS011;53846;51.984;5.890;2022-08-21T11:02:25;8.73;;;8.32;;
66933;SDS011;53846;51.984;5.890;2022-08-21T11:04:59;9.40;;;9.00;;
66933;SDS011;53846;51.984;5.890;2022-08-21T11:07:34;8.10;;;7.80;;
66933;SDS011;53846;51.984;5.890;2022-08-21T11:10:08;7.45;;;7.15;;
66933;SDS011;53846;51.984;5.890;2022-08-21T11:12:44;8.02;;;7.70;;
66933;SDS011;53846;51.984;5.890;2022-08-21T11:15:23;8.18;;;7.78;;
66933;SDS011;53846;51.984;5.890;2022-08-21T11:17:59;8.48;;;8.07;;
66933;SDS011;53846;51.984;5.890;2022-08-21T11:20:36;18.95;;;18.10;;
66933;SDS011;53846;51.984;5.890;2022-08-21T11:23:11;11.50;;;10.95;;
66933;SDS011;53846;51.984;5.890;2022-08-21T11:25:46;11.60;;;10.98;;
66933;SDS011;53846;51.984;5.890;2022-08-21T11:28:22;12.25;;;11.75;;
66933;SDS011;53846;51.984;5.890;2022-08-21T11:31:02;11.20;;;10.70;;
66933;SDS011;53846;51.984;5.890;2022-08-21T11:33:48;10.40;;;10.00;;
66933;SDS011;53846;51.984;5.890;2022-08-21T11:36:25;44.80;;;41.80;;
66933;SDS011;53846;51.984;5.890;2022-08-21T11:39:01;15.93;;;15.20;;
66933;SDS011;53846;51.984;5.890;2022-08-21T11:41:39;15.68;;;14.98;;
66933;SDS011;53846;51.984;5.890;2022-08-21T11:44:16;16.05;;;15.30;;
66933;SDS011;53846;51.984;5.890;2022-08-21T11:46:57;16.50;;;15.75;;
66933;SDS011;53846;51.984;5.890;2022-08-21T11:49:33;17.15;;;16.38;;
66933;SDS011;53846;51.984;5.890;2022-08-21T11:52:16;16.65;;;15.77;;
66933;SDS011;53846;51.984;5.890;2022-08-21T11:54:53;16.30;;;15.57;;
66933;SDS011;53846;51.984;5.890;2022-08-21T11:57:29;15.38;;;14.63;;
66933;SDS011;53846;51.984;5.890;2022-08-21T12:00:03;18.70;;;17.85;;
66933;SDS011;53846;51.984;5.890;2022-08-21T12:02:45;19.75;;;18.83;;
66933;SDS011;53846;51.984;5.890;2022-08-21T12:05:27;32.97;;;24.20;;
66933;SDS011;53846;51.984;5.890;2022-08-21T12:08:02;28.98;;;27.60;;
66933;SDS011;53846;51.984;5.890;2022-08-21T12:10:35;27.48;;;26.10;;
66933;SDS011;53846;51.984;5.890;2022-08-21T12:13:07;28.23;;;26.88;;
66933;SDS011;53846;51.984;5.890;2022-08-21T12:15:39;30.75;;;29.20;;
66933;SDS011;53846;51.984;5.890;2022-08-21T12:18:21;30.65;;;29.08;;
66933;SDS011;53846;51.984;5.890;2022-08-21T12:21:00;35.45;;;33.75;;
66933;SDS011;53846;51.984;5.890;2022-08-21T12:23:32;34.97;;;33.28;;
66933;SDS011;53846;51.984;5.890;2022-08-21T12:26:09;39.80;;;37.88;;
66933;SDS011;53846;51.984;5.890;2022-08-21T12:28:47;40.03;;;38.10;;
66933;SDS011;53846;51.984;5.890;2022-08-21T12:31:19;41.67;;;39.50;;
66933;SDS011;53846;51.984;5.890;2022-08-21T12:33:57;41.92;;;39.92;;
66933;SDS011;53846;51.984;5.890;2022-08-21T12:36:30;42.75;;;40.65;;
66933;SDS011;53846;51.984;5.890;2022-08-21T12:39:11;43.28;;;41.15;;
66933;SDS011;53846;51.984;5.890;2022-08-21T12:41:47;106.78;;;101.55;;
66933;SDS011;53846;51.984;5.890;2022-08-21T12:44:21;118.90;;;113.13;;
66933;SDS011;53846;51.984;5.890;2022-08-21T12:46:55;101.72;;;96.82;;
66933;SDS011;53846;51.984;5.890;2022-08-21T12:49:30;106.28;;;101.18;;
66933;SDS011;53846;51.984;5.890;2022-08-21T12:52:09;96.75;;;92.10;;
66933;SDS011;53846;51.984;5.890;2022-08-21T12:54:45;105.00;;;99.60;;
66933;SDS011;53846;51.984;5.890;2022-08-21T12:57:19;103.82;;;98.72;;
66933;SDS011;53846;51.984;5.890;2022-08-21T12:59:52;107.30;;;102.13;;
66933;SDS011;53846;51.984;5.890;2022-08-21T13:02:23;93.05;;;88.57;;
66933;SDS011;53846;51.984;5.890;2022-08-21T13:04:59;115.13;;;109.53;;
66933;SDS011;53846;51.984;5.890;2022-08-21T13:07:32;115.47;;;109.78;;
66933;SDS011;53846;51.984;5.890;2022-08-21T13:10:05;130.20;;;123.80;;
66933;SDS011;53846;51.984;5.890;2022-08-21T13:12:42;121.00;;;114.75;;
66933;SDS011;53846;51.984;5.890;2022-08-21T13:15:11;117.28;;;111.43;;
66933;SDS011;53846;51.984;5.890;2022-08-21T13:17:50;114.57;;;109.00;;
66933;SDS011;53846;51.984;5.890;2022-08-21T13:20:23;119.68;;;113.55;;
66933;SDS011;53846;51.984;5.890;2022-08-21T13:22:55;113.22;;;107.70;;
66933;SDS011;53846;51.984;5.890;2022-08-21T13:25:26;113.03;;;107.45;;
66933;SDS011;53846;51.984;5.890;2022-08-21T13:27:58;113.82;;;108.20;;
66933;SDS011;53846;51.984;5.890;2022-08-21T13:30:29;117.03;;;111.22;;
66933;SDS011;53846;51.984;5.890;2022-08-21T13:32:59;110.47;;;105.05;;
66933;SDS011;53846;51.984;5.890;2022-08-21T13:35:34;110.25;;;104.78;;
66933;SDS011;53846;51.984;5.890;2022-08-21T13:38:13;113.18;;;107.63;;
66933;SDS011;53846;51.984;5.890;2022-08-21T13:40:45;108.18;;;102.90;;
66933;SDS011;53846;51.984;5.890;2022-08-21T13:43:17;97.35;;;92.63;;
66933;SDS011;53846;51.984;5.890;2022-08-21T13:45:49;95.90;;;91.20;;
66933;SDS011;53846;51.984;5.890;2022-08-21T13:48:20;98.25;;;93.45;;
66933;SDS011;53846;51.984;5.890;2022-08-21T13:50:54;98.68;;;93.35;;
66933;SDS011;53846;51.984;5.890;2022-08-21T13:53:28;81.47;;;77.47;;
66933;SDS011;53846;51.984;5.890;2022-08-21T13:55:59;80.55;;;76.60;;
66933;SDS011;53846;51.984;5.890;2022-08-21T13:58:41;74.10;;;70.45;;
66933;SDS011;53846;51.984;5.890;2022-08-21T14:01:17;74.68;;;71.03;;
66933;SDS011;53846;51.984;5.890;2022-08-21T14:03:49;74.85;;;71.15;;
66933;SDS011;53846;51.984;5.890;2022-08-21T14:06:26;65.47;;;62.28;;
66933;SDS011;53846;51.984;5.890;2022-08-21T14:08:58;66.88;;;63.58;;
66933;SDS011;53846;51.984;5.890;2022-08-21T14:11:31;51.92;;;49.42;;
66933;SDS011;53846;51.984;5.890;2022-08-21T14:14:03;51.67;;;49.17;;
66933;SDS011;53846;51.984;5.890;2022-08-21T14:16:44;40.58;;;38.60;;
66933;SDS011;53846;51.984;5.890;2022-08-21T14:19:21;34.28;;;32.63;;
66933;SDS011;53846;51.984;5.890;2022-08-21T14:21:54;37.60;;;35.78;;
66933;SDS011;53846;51.984;5.890;2022-08-21T14:24:25;34.72;;;33.08;;
66933;SDS011;53846;51.984;5.890;2022-08-21T14:26:57;35.00;;;33.33;;
66933;SDS011;53846;51.984;5.890;2022-08-21T14:29:33;29.20;;;27.65;;
66933;SDS011;53846;51.984;5.890;2022-08-21T14:32:09;21.95;;;20.90;;
66933;SDS011;53846;51.984;5.890;2022-08-21T14:34:41;15.15;;;14.48;;
66933;SDS011;53846;51.984;5.890;2022-08-21T14:37:12;14.63;;;13.98;;
66933;SDS011;53846;51.984;5.890;2022-08-21T14:39:42;24.98;;;23.80;;
66933;SDS011;53846;51.984;5.890;2022-08-21T14:42:11;24.48;;;23.33;;
66933;SDS011;53846;51.984;5.890;2022-08-21T14:44:40;25.75;;;24.52;;